Latest Coastal Weather Observations for Hobart Airport

IDT60701

Issued at 4:22 am EST Tuesday 20 August 2019 (issued every 10 minutes, with the page automatically refreshed every 10 minutes)

About coastal observations | Map of coastal stations | Coastal observations for TAS | Marine services | Other Formats
Station Details ID: 094008 Name: HOBART AIRPORT Lat: -42.83 Lon: 147.50 Height: 4.0 m
Data from the previous 72 hours. | See also: Recent months at Hobart Airport
Date/Time
EST
Wind Sea
Height
m
Swell Vis
km
Cloud Weather Temp
°C
Press
hPa
Rain since
9am
mm
Dir  Spd
kts
Gust
kts
Height
m
Period
s
Dir
20/04:04am WNW 24 34 - - - - 10 Mostly clear - 11.6 1004.7 0.0
20/04:00am WNW 26 34 - - - - 10 Mostly clear - 11.8 1004.7 0.0
20/03:30am WNW 27 37 - - - - 10 Mostly clear - 11.5 1004.0 0.0
20/03:00am WNW 29 42 - - - - 30 Partly cloudy Fine 11.6 1004.0 0.0
20/02:31am WNW 28 38 - - - - 10 Mostly clear - 11.8 1004.2 0.0
20/02:30am WNW 29 38 - - - - 10 Mostly clear - 11.8 1004.3 0.0
20/02:00am W 25 36 - - - - 10 Mostly clear - 11.8 1004.4 0.0
20/01:30am W 23 35 - - - - 10 Mostly clear - 11.7 1005.2 0.0
20/01:14am WNW 16 26 - - - - 10 Mostly clear - 11.5 1005.3 0.0
20/01:00am WNW 13 18 - - - - 10 Mostly clear - 11.4 1005.5 0.0
20/12:30am WNW 12 16 - - - - 10 Mostly clear - 11.3 1005.6 0.0
20/12:00am WNW 11 21 - - - - 30 Mostly cloudy Recent precip. 11.3 1005.9 0.0
 
Date/Time
EST
Wind Sea
Height
m
Swell Vis
km
Cloud Weather Temp
°C
Press
hPa
Rain since
9am
mm
Dir  Spd
kts
Gust
kts
Height
m
Period
s
Dir
19/11:30pm NW 11 16 - - - - 10 Mostly clear - 11.1 1006.2 0.0
19/11:00pm NNW 10 14 - - - - 10 Mostly clear - 10.4 1006.3 0.0
19/10:30pm NNW 11 16 - - - - 10 Mostly clear - 10.4 1006.4 0.0
19/10:00pm NNW 11 15 - - - - 10 Mostly clear - 9.5 1006.5 0.0
19/09:30pm NNW 11 16 - - - - 10 Mostly clear - 8.5 1006.4 0.0
19/09:00pm NW 13 18 - - - - 20 Mostly cloudy Distant precip. 8.3 1006.4 0.0
19/08:30pm NNW 10 14 - - - - 10 Mostly clear - 7.7 1006.4 0.0
19/08:00pm NW 11 17 - - - - 10 Mostly clear - 7.4 1006.4 0.0
19/07:30pm NNW 9 14 - - - - 10 Mostly clear - 7.2 1006.5 0.0
19/07:00pm NW 15 18 - - - - 10 Mostly clear - 7.4 1006.4 0.0
19/06:30pm NW 16 20 - - - - 10 Mostly clear - 7.3 1006.3 0.0
19/06:00pm NNW 14 20 - - - - 30 Mostly cloudy Distant precip. 7.4 1006.2 0.0
19/05:30pm NW 15 20 - - - - 10 Mostly clear Rain 7.8 1006.3 0.0
19/05:00pm NW 14 19 - - - - 10 Mostly clear - 8.2 1006.2 0.0
19/04:30pm NW 16 20 - - - - 10 Mostly clear - 8.6 1006.0 0.0
19/04:00pm NW 14 21 - - - - 10 Mostly clear - 9.0 1005.7 0.0
19/03:30pm NW 9 12 - - - - 10 Mostly clear - 9.0 1005.6 0.0
19/03:00pm NW 13 17 - - - - 30 Mostly cloudy Distant precip. 9.2 1005.7 0.0
19/02:30pm WSW 12 19 - - - - 10 Mostly clear - 8.8 1005.6 0.0
19/02:00pm W 11 20 - - - - 10 Mostly clear - 9.3 1005.3 0.0
19/01:30pm NW 10 14 - - - - 10 Mostly clear - 9.3 1005.1 0.0
19/01:00pm WSW 12 15 - - - - 10 Mostly clear - 7.9 1005.2 0.0
19/12:30pm WSW 10 14 - - - - 10 Mostly clear - 7.5 1005.5 0.0
19/12:00pm SW 13 19 - - - - 15 Mostly cloudy Showers 7.1 1005.7 0.0
19/11:48am WNW 13 19 - - - - 10 Mostly clear Hail showers 7.7 1005.5 0.0
19/11:30am WNW 13 19 - - - - 10 Partly cloudy - 8.7 1005.2 0.0
19/11:00am WNW 13 18 - - - - 10 Partly cloudy - 8.8 1005.2 0.0
19/10:30am W 15 20 - - - - 10 Mostly clear - 7.5 1005.1 0.0
19/10:00am W 14 21 - - - - 10 Mostly clear - 6.3 1004.7 0.0
19/09:30am WSW 13 18 - - - - 10 Mostly clear Showers 7.5 1004.5 0.0
19/09:00am W 7 10 - - - - 30 Mostly cloudy Distant precip. 8.3 1004.2 0.0
19/08:30am SSE 3 5 - - - - 10 Mostly clear - 7.3 1003.7 0.0
19/08:00am SW 13 17 - - - - 10 Mostly clear - 6.2 1003.1 0.0
19/07:30am SW 9 15 - - - - 10 Partly cloudy - 5.8 1002.7 0.0
19/07:00am SW 16 20 - - - - 10 Mostly clear - 5.7 1001.5 0.0
19/06:30am WSW 16 22 - - - - 10 Mostly clear - 5.8 1001.0 0.0
19/06:00am WSW 12 15 - - - - 30 Partly cloudy Recent precip. 5.1 1000.4 0.0
19/05:32am SW 16 26 - - - - 10 Mostly clear - 6.8 1000.4 0.0
19/05:30am SW 16 22 - - - - 10 Mostly clear - 6.9 1000.5 0.0
19/05:00am SW 11 16 - - - - 10 Mostly clear - 6.8 1000.1 0.0
19/04:30am SW 13 18 - - - - 10 Mostly clear - 6.9 999.9 0.0
19/04:00am SW 19 25 - - - - 10 Mostly clear - 7.3 999.5 0.0
19/03:31am SW 15 27 - - - - 10 Mostly clear - 7.5 999.0 0.0
19/03:30am SW 14 27 - - - - 10 Mostly clear - 7.5 999.0 0.0
19/03:00am WSW 9 14 - - - - 40 Mostly cloudy Fine 7.9 998.9 0.0
19/02:30am WSW 9 13 - - - - 10 Mostly clear - 8.3 998.6 0.0
19/02:00am SW 9 13 - - - - 10 Mostly clear - 8.1 998.9 0.0
19/01:30am WSW 9 11 - - - - 10 Mostly clear - 8.7 999.0 0.0
19/01:00am WSW 9 13 - - - - 10 Mostly clear - 8.7 998.9 0.0
19/12:30am SW 9 15 - - - - 10 Mostly clear - 8.8 999.2 0.0
19/12:00am SW 10 15 - - - - 40 Mostly cloudy Fine 9.0 999.0 0.0
 
Date/Time
EST
Wind Sea
Height
m
Swell Vis
km
Cloud Weather Temp
°C
Press
hPa
Rain since
9am
mm
Dir  Spd
kts
Gust
kts
Height
m
Period
s
Dir
18/11:30pm CALM 0 0 - - - - 10 Mostly clear - 9.1 998.9 0.0
18/11:00pm NNW 3 5 - - - - 10 Mostly clear - 9.3 999.0 0.0
18/10:30pm CALM 0 0 - - - - 10 Mostly cloudy - 9.3 999.1 0.0
18/10:00pm W 4 5 - - - - 10 Partly cloudy - 9.8 998.6 0.0
18/09:30pm WNW 7 9 - - - - 10 Mostly clear - 10.1 998.9 0.0
18/09:00pm W 8 10 - - - - 35 Mostly cloudy Fine 9.5 998.6 0.0
18/08:30pm NW 7 9 - - - - 10 Mostly clear - 9.8 998.7 0.0
18/08:00pm NNW 8 12 - - - - 10 Mostly clear - 10.0 999.0 0.0
18/07:30pm NNW 6 8 - - - - 10 Mostly clear - 10.1 998.8 0.0
18/07:00pm N 6 10 - - - - 10 Mostly clear - 9.7 998.7 0.0
18/06:30pm NW 12 16 - - - - 10 Mostly clear Rain 10.8 998.7 0.0
18/06:05pm WNW 16 26 - - - - 10 Mostly clear Rain 11.9 998.0 0.0
18/06:00pm WNW 18 26 - - - - 20 Mostly cloudy Rain 12.1 997.9 0.0
18/05:49pm WNW 21 31 - - - - 10 Mostly clear Rain 13.0 997.5 0.0
18/05:47pm WNW 21 31 - - - - 10 Mostly clear Rain 13.2 997.4 0.0
18/05:40pm NNW 15 27 - - - - 10 Mostly clear Rain 14.5 996.9 0.0
18/05:30pm NNW 15 21 - - - - 10 Mostly clear - 14.0 997.0 0.0
18/05:00pm NNW 11 18 - - - - 10 Mostly clear - 14.9 996.7 0.0
18/04:30pm NNW 13 20 - - - - 10 Mostly clear - 15.1 996.8 0.0
18/04:08pm N 15 25 - - - - 10 - - 15.6 996.7 0.0
18/04:00pm N 12 20 - - - - 10 - - 16.0 996.9 0.0
18/03:30pm N 13 19 - - - - 10 - - 16.4 997.4 0.0
18/03:08pm NNW 18 28 - - - - 10 Mostly clear - 16.6 997.3 0.0
18/03:00pm N 18 26 - - - - 40 Mostly cloudy Fine 17.0 997.4 0.0
18/02:30pm N 21 31 - - - - 10 Mostly clear - 17.1 997.8 0.0
18/02:01pm N 17 27 - - - - 10 Mostly clear - 17.4 998.3 0.0
18/02:00pm N 17 23 - - - - 10 Mostly clear - 17.4 998.3 0.0
18/01:30pm N 18 27 - - - - 10 Mostly clear - 16.9 999.1 0.0
18/01:02pm N 18 28 - - - - 10 Mostly clear - 16.7 999.8 0.0
18/01:00pm N 17 26 - - - - 10 Mostly clear - 17.0 999.8 0.0
18/12:32pm N 17 27 - - - - 10 Mostly clear - 15.9 1000.4 0.0
18/12:30pm N 17 26 - - - - 10 Mostly clear - 16.0 1000.4 0.0
18/12:00pm N 17 29 - - - - 40 Mostly clear Fine 15.6 1001.4 0.0
18/11:46am N 17 28 - - - - 10 Mostly clear - 15.4 1001.6 0.0
18/11:30am N 18 27 - - - - 10 Mostly clear - 15.3 1002.3 0.0
18/11:18am N 17 27 - - - - 10 Mostly clear - 15.2 1002.8 0.0
18/11:00am N 15 23 - - - - 10 Mostly clear - 15.2 1003.4 0.0
18/10:30am N 15 21 - - - - 10 Mostly clear - 14.6 1003.7 0.0
18/10:00am N 15 26 - - - - 10 Mostly clear - 13.8 1004.8 0.0
18/09:52am N 15 25 - - - - 10 Mostly clear - 13.8 1005.2 0.0
18/09:30am N 11 19 - - - - 10 Mostly clear - 13.3 1005.2 0.0
18/09:00am N 12 19 - - - - 35 Mostly cloudy Fine 12.3 1005.6 0.0
18/08:30am N 9 14 - - - - 10 Mostly clear - 11.7 1006.1 0.0
18/08:00am N 6 8 - - - - 10 Mostly clear - 11.6 1006.3 0.0
18/07:30am N 10 14 - - - - 10 Mostly clear Showers 10.1 1006.4 0.0
18/07:00am N 9 13 - - - - 10 Mostly clear - 11.4 1006.6 0.0
18/06:30am N 8 12 - - - - 10 Mostly clear - 9.7 1007.4 0.0
18/06:00am N 9 15 - - - - 40 Partly cloudy Fine 10.9 1007.2 0.0
18/05:30am NNE 10 16 - - - - 10 Mostly clear - 10.5 1007.6 0.0
18/05:00am NNE 11 18 - - - - 10 Partly cloudy - 10.0 1008.5 0.0
18/04:30am N 10 15 - - - - 10 Partly cloudy - 9.6 1008.9 0.0
18/04:00am NNE 10 15 - - - - 10 Mostly clear - 9.8 1009.4 0.0
18/03:30am NNE 9 13 - - - - 10 Mostly clear - 9.9 1010.0 0.0
18/03:00am N 8 11 - - - - 40 Partly cloudy Fine 9.7 1010.8 0.0
18/02:30am N 8 12 - - - - 10 Partly cloudy - 9.4 1011.3 0.0
18/02:00am N 9 11 - - - - 10 Mostly clear - 9.3 1012.2 0.0
18/01:30am NNW 5 7 - - - - 10 Mostly clear - 8.8 1012.6 0.0
18/01:00am N 8 11 - - - - 10 - - 8.2 1013.1 0.0
18/12:30am NNE 8 11 - - - - 10 Mostly clear - 8.7 1013.4 0.0
18/12:00am NNE 8 11 - - - - 40 Partly cloudy Fine 9.1 1014.1 0.0
 
Date/Time
EST
Wind Sea
Height
m
Swell Vis
km
Cloud Weather Temp
°C
Press
hPa
Rain since
9am
mm
Dir  Spd
kts
Gust
kts
Height
m
Period
s
Dir
17/11:30pm N 7 9 - - - - 10 Mostly cloudy - 9.0 1014.8 0.0
17/11:00pm NNE 9 13 - - - - 10 Mostly cloudy - 8.9 1014.8 0.0
17/10:30pm NNE 9 12 - - - - 10 Partly cloudy - 8.4 1015.5 0.0
17/10:00pm NE 9 11 - - - - 10 Mostly clear - 8.7 1016.0 0.0
17/09:30pm N 9 14 - - - - 10 Mostly clear - 9.4 1016.3 0.0
17/09:00pm N 7 9 - - - - 40 Mostly clear Fine 9.1 1016.6 0.0
17/08:30pm N 10 14 - - - - 10 Mostly clear - 9.5 1017.0 0.0
17/08:00pm N 8 11 - - - - 10 Mostly clear - 10.1 1017.2 0.0
17/07:30pm N 6 8 - - - - 10 Mostly clear - 8.6 1017.3 0.0
17/07:00pm N 6 8 - - - - 10 Mostly clear - 9.9 1017.2 0.0
17/06:30pm NNE 9 13 - - - - 10 Mostly clear - 9.8 1017.1 0.0
17/06:00pm N 9 12 - - - - 40 Mostly clear Fine 11.3 1017.0 0.0
17/05:30pm N 11 17 - - - - 10 Mostly clear - 11.6 1017.0 0.0
17/05:00pm N 12 17 - - - - 10 Mostly clear - 12.2 1017.0 0.0
17/04:30pm N 11 16 - - - - 10 Mostly clear - 13.0 1016.9 0.0
17/04:00pm NNE 13 19 - - - - 10 Mostly clear - 13.3 1016.9 0.0
17/03:30pm N 10 15 - - - - 10 Mostly clear - 14.0 1017.1 0.0
17/03:00pm NNE 10 15 - - - - 40 Mostly clear Fine 14.1 1017.4 0.0
17/02:30pm N 9 15 - - - - 10 Mostly clear - 14.0 1017.7 0.0
17/02:00pm N 11 15 - - - - 10 Mostly clear - 14.3 1017.8 0.0
17/01:30pm NNE 10 14 - - - - 10 Mostly clear - 14.0 1018.2 0.0
17/01:00pm N 8 13 - - - - 10 Mostly clear - 13.8 1018.6 0.0
17/12:30pm N 9 12 - - - - 10 Mostly clear - 13.6 1019.2 0.0
17/12:00pm NNE 7 12 - - - - 40 Mostly clear Fine 12.9 1019.6 0.0
17/11:30am NNE 9 10 - - - - 10 Mostly clear - 12.4 1020.1 0.0
17/11:00am NNW 8 11 - - - - 10 Mostly clear - 11.8 1020.5 0.0
17/10:30am NW 8 10 - - - - 10 Mostly clear - 10.9 1020.9 0.0
17/10:00am NW 9 11 - - - - 10 Mostly clear - 9.6 1021.1 0.0
17/09:30am NNW 8 11 - - - - 10 Mostly clear - 9.0 1021.2 0.0
17/09:00am NNW 7 9 - - - - 40 Mostly clear Fine 8.2 1021.2 0.0
17/08:30am WNW 7 8 - - - - 10 Mostly clear - 6.4 1021.3 0.0
17/08:00am WNW 5 7 - - - - 10 Mostly clear - 6.4 1021.1 0.0
17/07:30am NNW 3 4 - - - - 10 Mostly clear - 5.4 1020.8 0.0
17/07:00am WNW 5 6 - - - - 10 Mostly clear - 6.2 1020.6 0.0
17/06:30am NW 5 6 - - - - 10 Mostly clear - 6.7 1020.3 0.0
17/06:00am NW 3 4 - - - - 40 Mostly cloudy Fine 6.9 1020.0 0.0
17/05:30am NW 4 5 - - - - 10 Mostly clear - 6.9 1019.8 0.0
17/05:00am NNW 4 6 - - - - 10 Mostly clear - 7.1 1019.6 0.0
17/04:30am NW 3 4 - - - - 10 Mostly clear - 7.2 1019.3 0.0

Other formats

Comma delimited format used in spreadsheet applications
http://www.bom.gov.au/fwo/IDT60701/IDT60701.94975.axf

JavaScript Object Notation format (JSON) in row-major order
http://www.bom.gov.au/fwo/IDT60701/IDT60701.94975.json

Data quality

Most of these data are generated automatically and are frequently updated. Quality checks on data are not normally performed. It is possible for incorrect values to appear. Refer to information at About Latest Weather Observations and please check the disclaimer before using these data.